Sioux Arrow — WAG6168 — position and weather

sailwx.info

Track history (hours):
 
Tides and Currents Weather Stations Pressure Air Temp Water Temp Dewpoint Dewpoint Depression Visibility Wind Speed Wind Dir Waves Ship Positions

Sioux Arrow

Owner: HARMON, JACK L, PORT ANGELES, WA. More information available from US FCC via Universal Licensing System and Coast Guard Vessel Documentation Center.

Last reported at 2015-Aug-01 20:18 UTC. Time now 2015-Aug-02 22:24 UTC.
Position N 48°34' W 122°35'.

Type: Port tender. MMSI: 366973370.

Date/timePositionNaut miles runAvg speedWind from/ knotsBaromVisibWave heightAir tempDewpointWater temp
2015-Aug-01 20:18N 48°34' W 122°35'1 0.2
2015-Aug-01 15:05N 48°33' W 122°34'3 0.5
2015-Aug-01 09:17N 48°31' W 122°34'1 0.3
2015-Aug-01 05:31N 48°31' W 122°36'0 0.0
2015-Aug-01 03:11N 48°31' W 122°36'5 0.2
2015-Jul-31 02:25N 48°35' W 122°34'1 0.1
2015-Jul-30 16:33N 48°35' W 122°34'1 0.0
2015-Jul-29 03:30N 48°35' W 122°32'4 0.6
2015-Jul-28 20:10N 48°31' W 122°34'2 1.2
2015-Jul-28 18:30N 48°31' W 122°36'0 0.0
2015-Jul-28 17:33N 48°31' W 122°37'1 1.1
2015-Jul-28 16:33N 48°31' W 122°35'1 1.0
2015-Jul-28 15:33N 48°31' W 122°36'2 0.7
2015-Jul-28 12:33N 48°32' W 122°34'2 2.1
2015-Jul-28 11:33N 48°31' W 122°36'0 0.4
2015-Jul-28 10:34N 48°31' W 122°36'1 0.0
2015-Jul-27 03:14N 48°31' W 122°36'0 0.0
2015-Jul-27 02:33N 48°31' W 122°36'0 0.0
2015-Jul-26 13:33N 48°31' W 122°37'0 0.0
2015-Jul-26 12:34N 48°31' W 122°36'0 0.0
2015-Jul-25 22:04N 48°31' W 122°36'0 0.0
2015-Jul-25 21:33N 48°31' W 122°36'0 0.0
2015-Jul-25 20:33N 48°31' W 122°36'2 0.2
2015-Jul-25 13:34N 48°31' W 122°34'2 1.5
2015-Jul-25 12:33N 48°31' W 122°36'0 0.0
2015-Jul-25 09:33N 48°31' W 122°36'6 6.3
2015-Jul-25 08:33N 48°37' W 122°34'6 6.2
2015-Jul-25 07:33N 48°31' W 122°36'0 0.0
2015-Jul-24 21:26N 48°31' W 122°36'1 0.8
2015-Jul-24 20:33N 48°31' W 122°36'1 0.0
2015-Jul-24 03:05N 48°31' W 122°36'0 0.0
2015-Jul-24 02:33N 48°31' W 122°36'0 0.0
2015-Jul-24 01:33N 48°31' W 122°36'0 0.0
2015-Jul-24 00:33N 48°31' W 122°36'0 0.0
2015-Jul-23 23:33N 48°31' W 122°37'0 0.0
2015-Jul-23 22:33N 48°31' W 122°36'0 0.0
2015-Jul-23 21:33N 48°31' W 122°36'0 0.0
2015-Jul-23 20:33N 48°31' W 122°36'0 0.0
2015-Jul-23 19:34N 48°31' W 122°36'0 0.0
2015-Jul-23 18:33N 48°31' W 122°36'0 0.0
2015-Jul-23 17:33N 48°31' W 122°36'0 0.0
2015-Jul-23 16:34N 48°31' W 122°36'1 1.2
2015-Jul-23 15:34N 48°31' W 122°35'1 1.2
2015-Jul-23 14:34N 48°31' W 122°36'0 0.0
2015-Jul-23 05:33N 48°31' W 122°36'1 1.4
2015-Jul-23 04:33N 48°31' W 122°34'1 1.5
2015-Jul-23 03:33N 48°31' W 122°36'0 0.0
2015-Jul-23 02:33N 48°31' W 122°36'0 0.0
2015-Jul-23 01:33N 48°31' W 122°36'5 4.9
2015-Jul-23 00:33N 48°35' W 122°34'1 1.3
2015-Jul-22 23:32N 48°35' W 122°32'0 0.1
2015-Jul-22 22:33N 48°35' W 122°32'5 5.5
2015-Jul-22 21:33N 48°31' W 122°36'0 0.0
2015-Jul-22 20:33N 48°31' W 122°36'  
Track history (hours):
 
Tides and Currents Weather Stations Pressure Air Temp Water Temp Dewpoint Dewpoint Depression Visibility Wind Speed Wind Dir Waves Ship Positions

Sioux Arrow

Owner: HARMON, JACK L, PORT ANGELES, WA. More information available from US FCC via Universal Licensing System and Coast Guard Vessel Documentation Center.

Last reported at 2015-Aug-01 20:18 UTC. Time now 2015-Aug-02 22:24 UTC.
Position N 48°34' W 122°35'.

Type: Port tender. MMSI: 366973370.

Date/timePositionNaut miles runAvg speedWind from/ knotsBaromVisibWave heightAir tempDewpointWater temp
2015-Aug-01 20:18N 48°34' W 122°35'1 0.2
2015-Aug-01 15:05N 48°33' W 122°34'3 0.5
2015-Aug-01 09:17N 48°31' W 122°34'1 0.3
2015-Aug-01 05:31N 48°31' W 122°36'0 0.0
2015-Aug-01 03:11N 48°31' W 122°36'5 0.2
2015-Jul-31 02:25N 48°35' W 122°34'1 0.1
2015-Jul-30 16:33N 48°35' W 122°34'1 0.0
2015-Jul-29 03:30N 48°35' W 122°32'4 0.6
2015-Jul-28 20:10N 48°31' W 122°34'2 1.2
2015-Jul-28 18:30N 48°31' W 122°36'0 0.0
2015-Jul-28 17:33N 48°31' W 122°37'1 1.1
2015-Jul-28 16:33N 48°31' W 122°35'1 1.0
2015-Jul-28 15:33N 48°31' W 122°36'2 0.7
2015-Jul-28 12:33N 48°32' W 122°34'2 2.1
2015-Jul-28 11:33N 48°31' W 122°36'0 0.4
2015-Jul-28 10:34N 48°31' W 122°36'1 0.0
2015-Jul-27 03:14N 48°31' W 122°36'0 0.0
2015-Jul-27 02:33N 48°31' W 122°36'0 0.0
2015-Jul-26 13:33N 48°31' W 122°37'0 0.0
2015-Jul-26 12:34N 48°31' W 122°36'0 0.0
2015-Jul-25 22:04N 48°31' W 122°36'0 0.0
2015-Jul-25 21:33N 48°31' W 122°36'0 0.0
2015-Jul-25 20:33N 48°31' W 122°36'2 0.2
2015-Jul-25 13:34N 48°31' W 122°34'2 1.5
2015-Jul-25 12:33N 48°31' W 122°36'0 0.0
2015-Jul-25 09:33N 48°31' W 122°36'6 6.3
2015-Jul-25 08:33N 48°37' W 122°34'6 6.2
2015-Jul-25 07:33N 48°31' W 122°36'0 0.0
2015-Jul-24 21:26N 48°31' W 122°36'1 0.8
2015-Jul-24 20:33N 48°31' W 122°36'1 0.0
2015-Jul-24 03:05N 48°31' W 122°36'0 0.0
2015-Jul-24 02:33N 48°31' W 122°36'0 0.0
2015-Jul-24 01:33N 48°31' W 122°36'0 0.0
2015-Jul-24 00:33N 48°31' W 122°36'0 0.0
2015-Jul-23 23:33N 48°31' W 122°37'0 0.0
2015-Jul-23 22:33N 48°31' W 122°36'0 0.0
2015-Jul-23 21:33N 48°31' W 122°36'0 0.0
2015-Jul-23 20:33N 48°31' W 122°36'0 0.0
2015-Jul-23 19:34N 48°31' W 122°36'0 0.0
2015-Jul-23 18:33N 48°31' W 122°36'0 0.0
2015-Jul-23 17:33N 48°31' W 122°36'0 0.0
2015-Jul-23 16:34N 48°31' W 122°36'1 1.2
2015-Jul-23 15:34N 48°31' W 122°35'1 1.2
2015-Jul-23 14:34N 48°31' W 122°36'0 0.0
2015-Jul-23 05:33N 48°31' W 122°36'1 1.4
2015-Jul-23 04:33N 48°31' W 122°34'1 1.5
2015-Jul-23 03:33N 48°31' W 122°36'0 0.0
2015-Jul-23 02:33N 48°31' W 122°36'0 0.0
2015-Jul-23 01:33N 48°31' W 122°36'5 4.9
2015-Jul-23 00:33N 48°35' W 122°34'1 1.3
2015-Jul-22 23:32N 48°35' W 122°32'0 0.1
2015-Jul-22 22:33N 48°35' W 122°32'5 5.5
2015-Jul-22 21:33N 48°31' W 122°36'0 0.0
2015-Jul-22 20:33N 48°31' W 122°36'  

Dump ship's entire track history